sensor_id;sensor_type;location;lat;lon;timestamp;temperature;humidity
48752;DHT22;34544;48.836;9.174;2022-07-23T00:00:09;25.50;95.50
48752;DHT22;34544;48.836;9.174;2022-07-23T00:02:35;25.50;95.30
48752;DHT22;34544;48.836;9.174;2022-07-23T00:05:01;25.50;95.10
48752;DHT22;34544;48.836;9.174;2022-07-23T00:07:27;25.50;94.90
48752;DHT22;34544;48.836;9.174;2022-07-23T00:09:53;25.50;95.10
48752;DHT22;34544;48.836;9.174;2022-07-23T00:12:18;25.40;95.00
48752;DHT22;34544;48.836;9.174;2022-07-23T00:14:44;25.40;94.90
48752;DHT22;34544;48.836;9.174;2022-07-23T00:17:10;25.40;94.90
48752;DHT22;34544;48.836;9.174;2022-07-23T00:19:36;25.40;94.90
48752;DHT22;34544;48.836;9.174;2022-07-23T00:22:01;25.40;95.00
48752;DHT22;34544;48.836;9.174;2022-07-23T00:24:27;25.30;95.00
48752;DHT22;34544;48.836;9.174;2022-07-23T00:26:52;25.30;95.10
48752;DHT22;34544;48.836;9.174;2022-07-23T00:29:18;25.20;95.10
48752;DHT22;34544;48.836;9.174;2022-07-23T00:31:44;25.20;95.60
48752;DHT22;34544;48.836;9.174;2022-07-23T00:34:10;25.20;95.50
48752;DHT22;34544;48.836;9.174;2022-07-23T00:36:35;25.10;95.50
48752;DHT22;34544;48.836;9.174;2022-07-23T00:39:01;25.00;95.70
48752;DHT22;34544;48.836;9.174;2022-07-23T00:41:27;25.00;95.90
48752;DHT22;34544;48.836;9.174;2022-07-23T00:43:52;25.00;96.00
48752;DHT22;34544;48.836;9.174;2022-07-23T00:46:22;24.90;96.10
48752;DHT22;34544;48.836;9.174;2022-07-23T00:48:49;24.90;96.30
48752;DHT22;34544;48.836;9.174;2022-07-23T00:51:15;24.90;96.60
48752;DHT22;34544;48.836;9.174;2022-07-23T00:53:42;24.80;96.70
48752;DHT22;34544;48.836;9.174;2022-07-23T00:56:08;24.70;96.90
48752;DHT22;34544;48.836;9.174;2022-07-23T00:58:35;24.70;97.00
48752;DHT22;34544;48.836;9.174;2022-07-23T01:01:02;24.60;97.10
48752;DHT22;34544;48.836;9.174;2022-07-23T01:03:27;24.60;97.00
48752;DHT22;34544;48.836;9.174;2022-07-23T01:05:53;24.50;97.00
48752;DHT22;34544;48.836;9.174;2022-07-23T01:08:20;24.40;97.00
48752;DHT22;34544;48.836;9.174;2022-07-23T01:10:47;24.40;97.20
48752;DHT22;34544;48.836;9.174;2022-07-23T01:13:13;24.40;97.30
48752;DHT22;34544;48.836;9.174;2022-07-23T01:15:39;24.40;97.30
48752;DHT22;34544;48.836;9.174;2022-07-23T01:18:06;24.30;97.20
48752;DHT22;34544;48.836;9.174;2022-07-23T01:20:34;24.40;97.30
48752;DHT22;34544;48.836;9.174;2022-07-23T01:23:00;24.40;97.50
48752;DHT22;34544;48.836;9.174;2022-07-23T01:25:26;24.30;97.70
48752;DHT22;34544;48.836;9.174;2022-07-23T01:27:55;24.30;97.70
48752;DHT22;34544;48.836;9.174;2022-07-23T01:30:22;24.20;97.70
48752;DHT22;34544;48.836;9.174;2022-07-23T01:32:48;24.20;97.90
48752;DHT22;34544;48.836;9.174;2022-07-23T01:35:14;24.10;97.90
48752;DHT22;34544;48.836;9.174;2022-07-23T01:37:41;24.10;98.10
48752;DHT22;34544;48.836;9.174;2022-07-23T01:40:07;24.10;98.20
48752;DHT22;34544;48.836;9.174;2022-07-23T01:42:33;24.00;98.10
48752;DHT22;34544;48.836;9.174;2022-07-23T01:44:59;24.10;98.30
48752;DHT22;34544;48.836;9.174;2022-07-23T01:47:25;24.00;98.30
48752;DHT22;34544;48.836;9.174;2022-07-23T01:49:54;24.00;98.30
48752;DHT22;34544;48.836;9.174;2022-07-23T01:52:41;24.00;98.30
48752;DHT22;34544;48.836;9.174;2022-07-23T01:55:07;23.90;98.60
48752;DHT22;34544;48.836;9.174;2022-07-23T01:57:33;23.90;98.60
48752;DHT22;34544;48.836;9.174;2022-07-23T01:59:59;23.80;98.80
48752;DHT22;34544;48.836;9.174;2022-07-23T02:02:25;23.80;98.80
48752;DHT22;34544;48.836;9.174;2022-07-23T02:04:52;23.70;99.10
48752;DHT22;34544;48.836;9.174;2022-07-23T02:07:24;23.70;99.50
48752;DHT22;34544;48.836;9.174;2022-07-23T02:09:51;23.60;99.70
48752;DHT22;34544;48.836;9.174;2022-07-23T02:12:16;23.50;99.80
48752;DHT22;34544;48.836;9.174;2022-07-23T02:14:44;23.40;99.90
48752;DHT22;34544;48.836;9.174;2022-07-23T02:17:09;23.40;99.90
48752;DHT22;34544;48.836;9.174;2022-07-23T02:19:35;23.40;99.90
48752;DHT22;34544;48.836;9.174;2022-07-23T02:22:01;23.30;99.90
48752;DHT22;34544;48.836;9.174;2022-07-23T02:24:27;23.30;99.90
48752;DHT22;34544;48.836;9.174;2022-07-23T02:26:53;23.20;99.90
48752;DHT22;34544;48.836;9.174;2022-07-23T02:29:18;23.20;99.90
48752;DHT22;34544;48.836;9.174;2022-07-23T02:31:44;23.20;99.90
48752;DHT22;34544;48.836;9.174;2022-07-23T02:34:11;23.10;99.90
48752;DHT22;34544;48.836;9.174;2022-07-23T02:36:38;23.10;99.90
48752;DHT22;34544;48.836;9.174;2022-07-23T02:39:05;23.10;99.90
48752;DHT22;34544;48.836;9.174;2022-07-23T02:41:33;23.10;99.90
48752;DHT22;34544;48.836;9.174;2022-07-23T02:43:58;23.10;99.90
48752;DHT22;34544;48.836;9.174;2022-07-23T02:46:24;23.10;99.90
48752;DHT22;34544;48.836;9.174;2022-07-23T02:48:50;23.10;99.90
48752;DHT22;34544;48.836;9.174;2022-07-23T02:51:15;23.00;99.90
48752;DHT22;34544;48.836;9.174;2022-07-23T02:53:48;23.00;99.90
48752;DHT22;34544;48.836;9.174;2022-07-23T02:56:14;23.00;99.90
48752;DHT22;34544;48.836;9.174;2022-07-23T02:58:41;23.00;99.90
48752;DHT22;34544;48.836;9.174;2022-07-23T03:01:07;23.00;99.90
48752;DHT22;34544;48.836;9.174;2022-07-23T03:03:32;23.00;99.90
48752;DHT22;34544;48.836;9.174;2022-07-23T03:05:58;23.00;99.90
48752;DHT22;34544;48.836;9.174;2022-07-23T03:08:24;23.00;99.90
48752;DHT22;34544;48.836;9.174;2022-07-23T03:10:51;23.00;99.90
48752;DHT22;34544;48.836;9.174;2022-07-23T03:13:17;23.00;99.90
48752;DHT22;34544;48.836;9.174;2022-07-23T03:15:43;23.00;99.90
48752;DHT22;34544;48.836;9.174;2022-07-23T03:18:08;22.90;99.90
48752;DHT22;34544;48.836;9.174;2022-07-23T03:20:34;22.90;99.90
48752;DHT22;34544;48.836;9.174;2022-07-23T03:23:00;22.90;99.90
48752;DHT22;34544;48.836;9.174;2022-07-23T03:25:27;22.90;99.90
48752;DHT22;34544;48.836;9.174;2022-07-23T03:27:52;22.80;99.90
48752;DHT22;34544;48.836;9.174;2022-07-23T03:30:18;22.70;99.90
48752;DHT22;34544;48.836;9.174;2022-07-23T03:32:44;22.70;99.90
48752;DHT22;34544;48.836;9.174;2022-07-23T03:35:10;22.70;99.90
48752;DHT22;34544;48.836;9.174;2022-07-23T03:37:41;22.60;99.90
48752;DHT22;34544;48.836;9.174;2022-07-23T03:40:07;22.60;99.90
48752;DHT22;34544;48.836;9.174;2022-07-23T03:42:33;22.50;99.90
48752;DHT22;34544;48.836;9.174;2022-07-23T03:44:59;22.50;99.90
48752;DHT22;34544;48.836;9.174;2022-07-23T03:47:26;22.50;99.90
48752;DHT22;34544;48.836;9.174;2022-07-23T03:49:51;22.50;99.90
48752;DHT22;34544;48.836;9.174;2022-07-23T03:52:17;22.50;99.90
48752;DHT22;34544;48.836;9.174;2022-07-23T03:54:43;22.40;99.90
48752;DHT22;34544;48.836;9.174;2022-07-23T03:57:08;22.50;99.90
48752;DHT22;34544;48.836;9.174;2022-07-23T03:59:34;22.40;99.90
48752;DHT22;34544;48.836;9.174;2022-07-23T04:02:00;22.40;99.90
48752;DHT22;34544;48.836;9.174;2022-07-23T04:04:25;22.40;99.90
48752;DHT22;34544;48.836;9.174;2022-07-23T04:06:52;22.40;99.90
48752;DHT22;34544;48.836;9.174;2022-07-23T04:09:17;22.50;99.90
48752;DHT22;34544;48.836;9.174;2022-07-23T04:11:43;22.50;99.90
48752;DHT22;34544;48.836;9.174;2022-07-23T04:14:09;22.50;99.90
48752;DHT22;34544;48.836;9.174;2022-07-23T04:16:35;22.50;99.90
48752;DHT22;34544;48.836;9.174;2022-07-23T04:19:01;22.50;99.90
48752;DHT22;34544;48.836;9.174;2022-07-23T04:21:31;22.60;99.90
48752;DHT22;34544;48.836;9.174;2022-07-23T04:23:57;22.60;99.90
48752;DHT22;34544;48.836;9.174;2022-07-23T04:26:23;22.60;99.90
48752;DHT22;34544;48.836;9.174;2022-07-23T04:28:49;22.70;99.90
48752;DHT22;34544;48.836;9.174;2022-07-23T04:31:15;22.70;99.90
48752;DHT22;34544;48.836;9.174;2022-07-23T04:33:41;22.80;99.90
48752;DHT22;34544;48.836;9.174;2022-07-23T04:36:07;22.80;99.90
48752;DHT22;34544;48.836;9.174;2022-07-23T04:38:33;22.80;99.90
48752;DHT22;34544;48.836;9.174;2022-07-23T04:41:01;22.80;99.90
48752;DHT22;34544;48.836;9.174;2022-07-23T04:43:27;22.80;99.90
48752;DHT22;34544;48.836;9.174;2022-07-23T04:45:54;22.90;99.90
48752;DHT22;34544;48.836;9.174;2022-07-23T04:48:19;22.90;99.90
48752;DHT22;34544;48.836;9.174;2022-07-23T04:50:47;22.90;99.90
48752;DHT22;34544;48.836;9.174;2022-07-23T04:53:22;22.90;99.90
48752;DHT22;34544;48.836;9.174;2022-07-23T04:55:50;22.90;99.90
48752;DHT22;34544;48.836;9.174;2022-07-23T04:58:16;22.90;99.90
48752;DHT22;34544;48.836;9.174;2022-07-23T05:00:41;23.00;99.90
48752;DHT22;34544;48.836;9.174;2022-07-23T05:03:07;23.00;99.90
48752;DHT22;34544;48.836;9.174;2022-07-23T05:05:33;23.10;99.90
48752;DHT22;34544;48.836;9.174;2022-07-23T05:08:06;23.10;99.90
48752;DHT22;34544;48.836;9.174;2022-07-23T05:10:36;23.10;99.90
48752;DHT22;34544;48.836;9.174;2022-07-23T05:13:02;23.10;99.90
48752;DHT22;34544;48.836;9.174;2022-07-23T05:15:28;23.10;99.90
48752;DHT22;34544;48.836;9.174;2022-07-23T05:17:53;23.10;99.90
48752;DHT22;34544;48.836;9.174;2022-07-23T05:20:19;23.10;99.90
48752;DHT22;34544;48.836;9.174;2022-07-23T05:22:46;23.20;99.90
48752;DHT22;34544;48.836;9.174;2022-07-23T05:25:11;23.20;99.90
48752;DHT22;34544;48.836;9.174;2022-07-23T05:27:37;23.30;99.90
48752;DHT22;34544;48.836;9.174;2022-07-23T05:30:03;23.40;99.90
48752;DHT22;34544;48.836;9.174;2022-07-23T05:32:32;23.50;99.90
48752;DHT22;34544;48.836;9.174;2022-07-23T05:35:07;23.60;99.90
48752;DHT22;34544;48.836;9.174;2022-07-23T05:37:36;23.60;99.90
48752;DHT22;34544;48.836;9.174;2022-07-23T05:40:06;23.80;99.90
48752;DHT22;34544;48.836;9.174;2022-07-23T05:42:38;23.90;99.90
48752;DHT22;34544;48.836;9.174;2022-07-23T05:45:04;24.00;99.90
48752;DHT22;34544;48.836;9.174;2022-07-23T05:47:46;24.00;99.90
48752;DHT22;34544;48.836;9.174;2022-07-23T05:50:16;24.10;99.90
48752;DHT22;34544;48.836;9.174;2022-07-23T05:52:46;24.20;99.90
48752;DHT22;34544;48.836;9.174;2022-07-23T05:55:22;24.30;99.90
48752;DHT22;34544;48.836;9.174;2022-07-23T05:57:48;24.40;99.90
48752;DHT22;34544;48.836;9.174;2022-07-23T06:00:13;24.50;99.90
48752;DHT22;34544;48.836;9.174;2022-07-23T06:02:39;24.50;99.90
48752;DHT22;34544;48.836;9.174;2022-07-23T06:05:06;24.50;99.90
48752;DHT22;34544;48.836;9.174;2022-07-23T06:07:33;24.50;99.90
48752;DHT22;34544;48.836;9.174;2022-07-23T06:10:00;24.50;99.90
48752;DHT22;34544;48.836;9.174;2022-07-23T06:12:25;24.40;99.90
48752;DHT22;34544;48.836;9.174;2022-07-23T06:14:51;24.40;99.90
48752;DHT22;34544;48.836;9.174;2022-07-23T06:17:18;24.30;99.90
48752;DHT22;34544;48.836;9.174;2022-07-23T06:19:44;24.30;99.90
48752;DHT22;34544;48.836;9.174;2022-07-23T06:22:09;24.30;99.90
48752;DHT22;34544;48.836;9.174;2022-07-23T06:24:35;24.30;99.90
48752;DHT22;34544;48.836;9.174;2022-07-23T06:27:01;24.20;99.90
48752;DHT22;34544;48.836;9.174;2022-07-23T06:29:27;24.10;99.90
48752;DHT22;34544;48.836;9.174;2022-07-23T06:31:52;24.20;99.90
48752;DHT22;34544;48.836;9.174;2022-07-23T06:34:18;24.30;99.90
48752;DHT22;34544;48.836;9.174;2022-07-23T06:36:44;24.40;99.90
48752;DHT22;34544;48.836;9.174;2022-07-23T06:39:09;24.60;99.90
48752;DHT22;34544;48.836;9.174;2022-07-23T06:41:36;24.60;99.90
48752;DHT22;34544;48.836;9.174;2022-07-23T06:44:01;24.70;99.90
48752;DHT22;34544;48.836;9.174;2022-07-23T06:46:30;24.70;99.90
48752;DHT22;34544;48.836;9.174;2022-07-23T06:48:55;24.80;99.90
48752;DHT22;34544;48.836;9.174;2022-07-23T06:51:21;24.90;99.70
48752;DHT22;34544;48.836;9.174;2022-07-23T06:53:47;24.90;99.70
48752;DHT22;34544;48.836;9.174;2022-07-23T06:56:13;24.90;99.90
48752;DHT22;34544;48.836;9.174;2022-07-23T06:58:39;24.80;99.90
48752;DHT22;34544;48.836;9.174;2022-07-23T07:01:05;24.70;99.90
48752;DHT22;34544;48.836;9.174;2022-07-23T07:03:31;24.70;99.90
48752;DHT22;34544;48.836;9.174;2022-07-23T07:05:56;24.60;99.90
48752;DHT22;34544;48.836;9.174;2022-07-23T07:08:23;24.50;99.90
48752;DHT22;34544;48.836;9.174;2022-07-23T07:10:49;24.30;99.90
48752;DHT22;34544;48.836;9.174;2022-07-23T07:13:14;24.20;99.90
48752;DHT22;34544;48.836;9.174;2022-07-23T07:15:40;24.10;99.90
48752;DHT22;34544;48.836;9.174;2022-07-23T07:18:06;24.00;99.90
48752;DHT22;34544;48.836;9.174;2022-07-23T07:20:31;24.00;99.90
48752;DHT22;34544;48.836;9.174;2022-07-23T07:23:05;23.90;99.90
48752;DHT22;34544;48.836;9.174;2022-07-23T07:25:34;23.90;99.90
48752;DHT22;34544;48.836;9.174;2022-07-23T07:28:00;23.80;99.90
48752;DHT22;34544;48.836;9.174;2022-07-23T07:30:26;23.60;99.90
48752;DHT22;34544;48.836;9.174;2022-07-23T07:32:52;23.40;99.90
48752;DHT22;34544;48.836;9.174;2022-07-23T07:35:17;23.30;99.90
48752;DHT22;34544;48.836;9.174;2022-07-23T07:37:43;23.10;99.90
48752;DHT22;34544;48.836;9.174;2022-07-23T07:40:09;22.90;99.90
48752;DHT22;34544;48.836;9.174;2022-07-23T07:42:43;22.70;99.90
48752;DHT22;34544;48.836;9.174;2022-07-23T07:45:09;22.60;99.90
48752;DHT22;34544;48.836;9.174;2022-07-23T07:47:34;22.40;99.90
48752;DHT22;34544;48.836;9.174;2022-07-23T07:50:00;22.50;99.90
48752;DHT22;34544;48.836;9.174;2022-07-23T07:52:26;22.70;99.90
48752;DHT22;34544;48.836;9.174;2022-07-23T07:54:52;22.70;99.90
48752;DHT22;34544;48.836;9.174;2022-07-23T07:57:17;22.90;99.90
48752;DHT22;34544;48.836;9.174;2022-07-23T07:59:43;23.00;99.90
48752;DHT22;34544;48.836;9.174;2022-07-23T08:02:09;23.10;99.90
48752;DHT22;34544;48.836;9.174;2022-07-23T08:04:34;23.20;99.90
48752;DHT22;34544;48.836;9.174;2022-07-23T08:07:00;23.30;99.90
48752;DHT22;34544;48.836;9.174;2022-07-23T08:09:25;23.40;99.90
48752;DHT22;34544;48.836;9.174;2022-07-23T08:11:51;23.40;99.90
48752;DHT22;34544;48.836;9.174;2022-07-23T08:14:17;23.50;99.90
48752;DHT22;34544;48.836;9.174;2022-07-23T08:16:43;23.60;99.90
48752;DHT22;34544;48.836;9.174;2022-07-23T08:19:09;23.70;99.90
48752;DHT22;34544;48.836;9.174;2022-07-23T08:21:34;23.60;99.90
48752;DHT22;34544;48.836;9.174;2022-07-23T08:24:00;23.60;99.90
48752;DHT22;34544;48.836;9.174;2022-07-23T08:26:26;23.50;99.90
48752;DHT22;34544;48.836;9.174;2022-07-23T08:28:51;23.40;99.90
48752;DHT22;34544;48.836;9.174;2022-07-23T08:31:17;23.30;99.90
48752;DHT22;34544;48.836;9.174;2022-07-23T08:33:44;23.30;99.90
48752;DHT22;34544;48.836;9.174;2022-07-23T08:36:09;23.40;99.90
48752;DHT22;34544;48.836;9.174;2022-07-23T08:38:35;23.50;99.90
48752;DHT22;34544;48.836;9.174;2022-07-23T08:41:01;23.80;99.90
48752;DHT22;34544;48.836;9.174;2022-07-23T08:43:28;24.10;99.90
48752;DHT22;34544;48.836;9.174;2022-07-23T08:45:56;24.60;99.90
48752;DHT22;34544;48.836;9.174;2022-07-23T08:48:27;25.10;99.90
48752;DHT22;34544;48.836;9.174;2022-07-23T08:50:58;25.50;99.90
48752;DHT22;34544;48.836;9.174;2022-07-23T08:53:25;25.80;99.90
48752;DHT22;34544;48.836;9.174;2022-07-23T08:55:54;26.10;99.90
48752;DHT22;34544;48.836;9.174;2022-07-23T08:58:22;26.40;99.90
48752;DHT22;34544;48.836;9.174;2022-07-23T09:00:48;26.90;99.90
48752;DHT22;34544;48.836;9.174;2022-07-23T09:03:26;27.40;99.80
48752;DHT22;34544;48.836;9.174;2022-07-23T09:05:52;28.00;98.20
48752;DHT22;34544;48.836;9.174;2022-07-23T09:08:41;28.50;95.40
48752;DHT22;34544;48.836;9.174;2022-07-23T09:11:09;28.80;95.40
48752;DHT22;34544;48.836;9.174;2022-07-23T09:13:52;29.00;95.20
48752;DHT22;34544;48.836;9.174;2022-07-23T09:16:28;28.70;94.20
48752;DHT22;34544;48.836;9.174;2022-07-23T09:18:59;28.40;94.20
48752;DHT22;34544;48.836;9.174;2022-07-23T09:21:30;28.20;95.30
48752;DHT22;34544;48.836;9.174;2022-07-23T09:24:07;28.10;95.00
48752;DHT22;34544;48.836;9.174;2022-07-23T09:26:47;28.10;94.80
48752;DHT22;34544;48.836;9.174;2022-07-23T09:29:23;28.40;94.70
48752;DHT22;34544;48.836;9.174;2022-07-23T09:31:53;28.60;94.50
48752;DHT22;34544;48.836;9.174;2022-07-23T09:34:23;29.10;94.70
48752;DHT22;34544;48.836;9.174;2022-07-23T09:36:55;29.50;93.10
48752;DHT22;34544;48.836;9.174;2022-07-23T09:39:29;29.70;92.90
48752;DHT22;34544;48.836;9.174;2022-07-23T09:41:55;29.90;92.00
48752;DHT22;34544;48.836;9.174;2022-07-23T09:44:21;30.10;92.30
48752;DHT22;34544;48.836;9.174;2022-07-23T09:46:48;30.30;92.60
48752;DHT22;34544;48.836;9.174;2022-07-23T09:49:22;30.60;90.90
48752;DHT22;34544;48.836;9.174;2022-07-23T09:51:57;30.40;90.20
48752;DHT22;34544;48.836;9.174;2022-07-23T09:57:10;30.10;92.40
48752;DHT22;34544;48.836;9.174;2022-07-23T09:59:41;30.70;91.70
48752;DHT22;34544;48.836;9.174;2022-07-23T10:02:09;31.20;90.50
48752;DHT22;34544;48.836;9.174;2022-07-23T10:04:47;31.60;89.80
48752;DHT22;34544;48.836;9.174;2022-07-23T10:07:34;32.10;90.40
48752;DHT22;34544;48.836;9.174;2022-07-23T10:10:39;32.60;87.70
48752;DHT22;34544;48.836;9.174;2022-07-23T10:13:43;32.50;85.30
48752;DHT22;34544;48.836;9.174;2022-07-23T10:16:19;32.50;86.10
48752;DHT22;34544;48.836;9.174;2022-07-23T10:18:46;32.70;86.30
48752;DHT22;34544;48.836;9.174;2022-07-23T10:21:18;32.70;88.10
48752;DHT22;34544;48.836;9.174;2022-07-23T10:26:38;32.90;84.50
48752;DHT22;34544;48.836;9.174;2022-07-23T10:29:09;33.10;85.40
48752;DHT22;34544;48.836;9.174;2022-07-23T10:32:00;33.40;83.70
48752;DHT22;34544;48.836;9.174;2022-07-23T10:37:16;33.20;81.30
48752;DHT22;34544;48.836;9.174;2022-07-23T10:40:14;33.40;80.70
48752;DHT22;34544;48.836;9.174;2022-07-23T10:42:43;33.50;79.80
48752;DHT22;34544;48.836;9.174;2022-07-23T10:45:31;33.60;83.30
48752;DHT22;34544;48.836;9.174;2022-07-23T10:48:22;33.90;83.50
48752;DHT22;34544;48.836;9.174;2022-07-23T10:51:07;34.10;83.50
48752;DHT22;34544;48.836;9.174;2022-07-23T10:59:20;34.30;82.20
48752;DHT22;34544;48.836;9.174;2022-07-23T11:01:46;34.40;85.30
48752;DHT22;34544;48.836;9.174;2022-07-23T11:04:12;34.70;81.40
48752;DHT22;34544;48.836;9.174;2022-07-23T11:09:31;35.50;81.10
48752;DHT22;34544;48.836;9.174;2022-07-23T11:17:36;36.30;76.90
48752;DHT22;34544;48.836;9.174;2022-07-23T11:22:55;36.40;76.30
48752;DHT22;34544;48.836;9.174;2022-07-23T11:27:49;36.10;74.50
48752;DHT22;34544;48.836;9.174;2022-07-23T11:32:53;35.10;74.80
48752;DHT22;34544;48.836;9.174;2022-07-23T11:35:22;34.70;76.40
48752;DHT22;34544;48.836;9.174;2022-07-23T11:37:49;34.60;77.10
48752;DHT22;34544;48.836;9.174;2022-07-23T11:40:19;34.50;76.80
48752;DHT22;34544;48.836;9.174;2022-07-23T11:43:05;34.20;78.00
48752;DHT22;34544;48.836;9.174;2022-07-23T11:45:39;34.00;77.30
48752;DHT22;34544;48.836;9.174;2022-07-23T11:48:08;33.90;78.50
48752;DHT22;34544;48.836;9.174;2022-07-23T11:50:35;34.20;78.70
48752;DHT22;34544;48.836;9.174;2022-07-23T11:53:02;34.60;77.90
48752;DHT22;34544;48.836;9.174;2022-07-23T11:55:28;35.20;78.00
48752;DHT22;34544;48.836;9.174;2022-07-23T11:57:54;35.70;76.80
48752;DHT22;34544;48.836;9.174;2022-07-23T12:00:23;35.40;76.00
48752;DHT22;34544;48.836;9.174;2022-07-23T12:02:51;35.70;78.40
48752;DHT22;34544;48.836;9.174;2022-07-23T12:05:19;35.90;75.70
48752;DHT22;34544;48.836;9.174;2022-07-23T12:07:47;35.80;76.10
48752;DHT22;34544;48.836;9.174;2022-07-23T12:10:20;35.80;75.40
48752;DHT22;34544;48.836;9.174;2022-07-23T12:12:57;35.90;75.90
48752;DHT22;34544;48.836;9.174;2022-07-23T12:15:29;36.20;74.60
48752;DHT22;34544;48.836;9.174;2022-07-23T12:17:57;36.40;77.70
48752;DHT22;34544;48.836;9.174;2022-07-23T12:20:26;36.80;82.80
48752;DHT22;34544;48.836;9.174;2022-07-23T12:22:56;37.00;73.60
48752;DHT22;34544;48.836;9.174;2022-07-23T12:25:34;37.10;74.00
48752;DHT22;34544;48.836;9.174;2022-07-23T12:30:46;37.20;74.30
48752;DHT22;34544;48.836;9.174;2022-07-23T12:33:14;37.30;80.60
48752;DHT22;34544;48.836;9.174;2022-07-23T12:35:44;37.40;72.10
48752;DHT22;34544;48.836;9.174;2022-07-23T12:38:12;37.40;72.60
48752;DHT22;34544;48.836;9.174;2022-07-23T12:40:44;37.50;75.50
48752;DHT22;34544;48.836;9.174;2022-07-23T12:43:24;37.30;71.00
48752;DHT22;34544;48.836;9.174;2022-07-23T12:45:57;37.40;71.10
48752;DHT22;34544;48.836;9.174;2022-07-23T12:53:29;37.00;71.00
48752;DHT22;34544;48.836;9.174;2022-07-23T12:56:00;37.10;72.50
48752;DHT22;34544;48.836;9.174;2022-07-23T12:58:26;37.20;72.50
48752;DHT22;34544;48.836;9.174;2022-07-23T13:00:56;37.40;71.80
48752;DHT22;34544;48.836;9.174;2022-07-23T13:03:37;37.30;72.70
48752;DHT22;34544;48.836;9.174;2022-07-23T13:06:07;37.30;71.20
48752;DHT22;34544;48.836;9.174;2022-07-23T13:08:34;37.10;71.70
48752;DHT22;34544;48.836;9.174;2022-07-23T13:11:00;36.90;72.30
48752;DHT22;34544;48.836;9.174;2022-07-23T13:13:29;36.10;72.20
48752;DHT22;34544;48.836;9.174;2022-07-23T13:15:56;36.10;72.10
48752;DHT22;34544;48.836;9.174;2022-07-23T13:18:23;36.30;73.30
48752;DHT22;34544;48.836;9.174;2022-07-23T13:20:50;36.30;72.60
48752;DHT22;34544;48.836;9.174;2022-07-23T13:23:16;36.30;73.30
48752;DHT22;34544;48.836;9.174;2022-07-23T13:25:42;36.30;73.20
48752;DHT22;34544;48.836;9.174;2022-07-23T13:28:08;36.30;73.70
48752;DHT22;34544;48.836;9.174;2022-07-23T13:30:34;36.60;73.10
48752;DHT22;34544;48.836;9.174;2022-07-23T13:33:01;36.40;72.70
48752;DHT22;34544;48.836;9.174;2022-07-23T13:35:27;36.20;72.50
48752;DHT22;34544;48.836;9.174;2022-07-23T13:37:53;36.20;73.60
48752;DHT22;34544;48.836;9.174;2022-07-23T13:40:18;36.40;73.10
48752;DHT22;34544;48.836;9.174;2022-07-23T13:42:44;36.80;71.90
48752;DHT22;34544;48.836;9.174;2022-07-23T13:45:10;37.10;72.60
48752;DHT22;34544;48.836;9.174;2022-07-23T13:47:35;37.40;72.60
48752;DHT22;34544;48.836;9.174;2022-07-23T13:50:01;37.70;72.10
48752;DHT22;34544;48.836;9.174;2022-07-23T13:52:27;37.90;71.70
48752;DHT22;34544;48.836;9.174;2022-07-23T13:54:52;37.90;70.80
48752;DHT22;34544;48.836;9.174;2022-07-23T13:57:18;38.00;71.00
48752;DHT22;34544;48.836;9.174;2022-07-23T13:59:44;38.10;69.60
48752;DHT22;34544;48.836;9.174;2022-07-23T14:02:10;38.20;69.20
48752;DHT22;34544;48.836;9.174;2022-07-23T14:04:37;38.50;69.50
48752;DHT22;34544;48.836;9.174;2022-07-23T14:07:02;38.50;69.50
48752;DHT22;34544;48.836;9.174;2022-07-23T14:09:28;38.80;68.90
48752;DHT22;34544;48.836;9.174;2022-07-23T14:11:55;38.40;67.30
48752;DHT22;34544;48.836;9.174;2022-07-23T14:14:21;38.40;68.40
48752;DHT22;34544;48.836;9.174;2022-07-23T14:16:46;38.30;67.40
48752;DHT22;34544;48.836;9.174;2022-07-23T14:19:12;38.40;68.20
48752;DHT22;34544;48.836;9.174;2022-07-23T14:21:38;38.30;68.30
48752;DHT22;34544;48.836;9.174;2022-07-23T14:24:03;37.80;68.20
48752;DHT22;34544;48.836;9.174;2022-07-23T14:26:29;37.90;68.00
48752;DHT22;34544;48.836;9.174;2022-07-23T14:28:55;37.40;67.50
48752;DHT22;34544;48.836;9.174;2022-07-23T14:31:21;37.90;68.30
48752;DHT22;34544;48.836;9.174;2022-07-23T14:33:47;37.70;67.80
48752;DHT22;34544;48.836;9.174;2022-07-23T14:36:13;38.10;67.40
48752;DHT22;34544;48.836;9.174;2022-07-23T14:38:39;38.10;66.20
48752;DHT22;34544;48.836;9.174;2022-07-23T14:41:05;38.30;67.20
48752;DHT22;34544;48.836;9.174;2022-07-23T14:43:34;38.70;67.20
48752;DHT22;34544;48.836;9.174;2022-07-23T14:46:00;39.10;66.80
48752;DHT22;34544;48.836;9.174;2022-07-23T14:48:26;39.00;65.90
48752;DHT22;34544;48.836;9.174;2022-07-23T14:50:52;39.20;66.80
48752;DHT22;34544;48.836;9.174;2022-07-23T14:53:17;39.20;66.00
48752;DHT22;34544;48.836;9.174;2022-07-23T14:55:43;39.50;66.10
48752;DHT22;34544;48.836;9.174;2022-07-23T14:58:09;39.70;65.30
48752;DHT22;34544;48.836;9.174;2022-07-23T15:00:35;39.50;65.10
48752;DHT22;34544;48.836;9.174;2022-07-23T15:03:01;39.00;65.70
48752;DHT22;34544;48.836;9.174;2022-07-23T15:05:26;39.00;66.80
48752;DHT22;34544;48.836;9.174;2022-07-23T15:07:53;38.90;65.60
48752;DHT22;34544;48.836;9.174;2022-07-23T15:10:19;39.20;65.00
48752;DHT22;34544;48.836;9.174;2022-07-23T15:12:44;38.90;65.30
48752;DHT22;34544;48.836;9.174;2022-07-23T15:15:10;38.50;64.00
48752;DHT22;34544;48.836;9.174;2022-07-23T15:17:36;38.80;64.80
48752;DHT22;34544;48.836;9.174;2022-07-23T15:20:02;38.90;65.20
48752;DHT22;34544;48.836;9.174;2022-07-23T15:22:27;38.80;65.70
48752;DHT22;34544;48.836;9.174;2022-07-23T15:24:53;38.90;65.70
48752;DHT22;34544;48.836;9.174;2022-07-23T15:27:19;38.80;65.80
48752;DHT22;34544;48.836;9.174;2022-07-23T15:29:45;38.70;64.50
48752;DHT22;34544;48.836;9.174;2022-07-23T15:32:10;38.80;65.10
48752;DHT22;34544;48.836;9.174;2022-07-23T15:34:38;38.70;64.70
48752;DHT22;34544;48.836;9.174;2022-07-23T15:37:04;38.30;65.30
48752;DHT22;34544;48.836;9.174;2022-07-23T15:39:31;38.10;65.90
48752;DHT22;34544;48.836;9.174;2022-07-23T15:42:01;38.00;66.40
48752;DHT22;34544;48.836;9.174;2022-07-23T15:44:28;37.90;66.20
48752;DHT22;34544;48.836;9.174;2022-07-23T15:46:53;37.60;65.90
48752;DHT22;34544;48.836;9.174;2022-07-23T15:49:19;37.40;66.30
48752;DHT22;34544;48.836;9.174;2022-07-23T15:51:45;37.50;66.00
48752;DHT22;34544;48.836;9.174;2022-07-23T15:54:11;37.30;65.70
48752;DHT22;34544;48.836;9.174;2022-07-23T15:56:36;37.40;66.70
48752;DHT22;34544;48.836;9.174;2022-07-23T15:59:02;37.00;67.60
48752;DHT22;34544;48.836;9.174;2022-07-23T16:01:28;36.90;66.90
48752;DHT22;34544;48.836;9.174;2022-07-23T16:03:57;36.80;67.60
48752;DHT22;34544;48.836;9.174;2022-07-23T16:06:26;36.80;66.50
48752;DHT22;34544;48.836;9.174;2022-07-23T16:08:52;36.70;66.50
48752;DHT22;34544;48.836;9.174;2022-07-23T16:11:17;36.70;67.10